Bartlesville, OK

11:13 AM CST on January 31, 2015 (GMT -0600)
Bartlesville - Osage County | Change Station
CLOSE
Current Station
Personal Weather Station
Location: Bartlesville, OK
Elevation: 873 ft
Nearby Weather Stations

Elev 873 ft 36.76 °N, 96.04 °W | Updated 3 minutes ago

Overcast
Overcast
40.2 °F
Feels Like 40 °F
N
0.0
Wind Variable Wind from SE
Gusts 0.0 mph

Today
High -- | Low -- °F
--% Chance of Precip.
Yesterday
High -- | Low -- °F
Precip. -- in
7:26 AM 5:48 PM
Waxing Gibbous, 90% visible
Pressure 30.22 in
Visibility 10.0 miles
Clouds Overcast 6500 ft
Windchill 40 °F
Dew Point 35 °F
Humidity 82%
Rainfall 0.02 in
Snow Depth Not available.
UV 1 out of 12
Pollen 1.50 out of 12
Air Quality Not available.
Flu Activity Not available.
METAR KBVO 311653Z 15005KT 10SM -RA OVC065 04/01 A3021 RMK AO2 RAB20 SLP231 P0001 T00440011

More Conditions Fewer Conditions

Pressure 30.22 in
Visibility 10.0 miles
Clouds Overcast 6500 ft
Windchill 40 °F
Dew Point 35 °F
Humidity 82%
Rainfall 0.02 in
Snow Depth Not available.
UV 1 out of 12
Pollen 1.50 out of 12
Air Quality Not available.
Flu Activity Not available.
METAR KBVO 311653Z 15005KT 10SM -RA OVC065 04/01 A3021 RMK AO2 RAB20 SLP231 P0001 T00440011

More Conditions Fewer Conditions

Nowcast | as of 9:33 am CST on January 31, 2015

At 9:30 am... National Weather Service Doppler radar continued to indicate an area of predominantly light rain... moving to the northeast across parts of northeast Oklahoma. Most affected were locations along and west of Highway 75 and along and north of I 40. Through 11:00 am... light to occasionally moderate rain is expected to persist mostly along and west of Highway 75 and along and north of I 40 in eastern Oklahoma. The area of rain will continue to slowly advance eastward. Light average hourly rainfall rates of several hundredth of an inch... are anticipated.

×

10-Day Weather Forecast

Almanac

Astronomy

Jan. 31, 2015 Rise Set
Actual Time
Civil Twilight
Nautical Twilight
Astronomical Twilight
Moon
Length of Visible Light
Length of Day
Tomorrow will be .
, % of the Moon is Illuminated

Today's Extremes

State Highs State Lows

Community

WunderPhotos

Upload Photos

1,792,122 photos uploaded!

WunderBlogs® & News

Nearby

Air Quality

  Air Quality AQ Index Pollutant
Not available.

Snow Depth

Station Depth Elevation

Earthquake Activity

City Distance Mag. Time & Date
Minimum magnitude displayed is 2.5.

Coastal Water Temperatures

Place Temperature

Nearby Weather Stations